TimeMST,TemperatureF,Dew PointF,Humidity,Sea Level PressureIn,VisibilityMPH,Wind Direction,Wind SpeedMPH,Gust SpeedMPH,PrecipitationIn,Events,Conditions,WindDirDegrees,DateUTC
12:53 AM,33.1,27.0,78,29.89,10.0,Calm,Calm,-,N/A,,Overcast,0,2012-12-13 07:53:00
1:53 AM,33.1,28.0,82,29.88,8.0,ESE,4.6,-,0.00,Snow,Light Snow,110,2012-12-13 08:53:00
2:53 AM,30.9,27.0,85,29.88,10.0,North,6.9,-,0.00,,Overcast,350,2012-12-13 09:53:00
3:53 AM,30.9,27.0,85,29.88,10.0,Calm,Calm,-,N/A,,Overcast,0,2012-12-13 10:53:00
4:53 AM,30.9,26.1,82,29.90,10.0,North,6.9,-,N/A,,Overcast,350,2012-12-13 11:53:00
5:53 AM,28.9,25.0,85,29.93,10.0,North,6.9,-,N/A,,Mostly Cloudy,360,2012-12-13 12:53:00
6:53 AM,30.0,26.1,85,29.93,10.0,North,6.9,-,N/A,,Mostly Cloudy,10,2012-12-13 13:53:00
7:53 AM,30.0,26.1,85,29.94,10.0,North,6.9,-,N/A,,Scattered Clouds,10,2012-12-13 14:53:00
8:53 AM,28.0,24.1,85,29.95,10.0,North,3.5,-,N/A,,Scattered Clouds,360,2012-12-13 15:53:00
9:53 AM,32.0,26.1,79,29.95,10.0,NNW,4.6,-,N/A,,Mostly Cloudy,330,2012-12-13 16:53:00
10:33 AM,32.0,28.4,87,29.91,2.5,Calm,Calm,-,0.00,Snow,Light Snow,0,2012-12-13 17:33:00
10:51 AM,33.8,28.4,81,29.91,5.0,NNE,4.6,-,0.00,Snow,Light Snow,20,2012-12-13 17:51:00
10:53 AM,33.1,28.0,82,29.96,5.0,NNE,3.5,-,0.00,Snow,Light Snow,20,2012-12-13 17:53:00
11:53 AM,37.0,28.9,73,29.93,10.0,NNE,5.8,-,0.00,,Mostly Cloudy,20,2012-12-13 18:53:00
12:53 PM,41.0,30.9,67,29.89,10.0,North,5.8,-,N/A,,Scattered Clouds,360,2012-12-13 19:53:00
1:53 PM,41.0,30.9,67,29.87,10.0,North,8.1,-,N/A,,Mostly Cloudy,350,2012-12-13 20:53:00
2:53 PM,41.0,30.9,67,29.86,10.0,NNW,6.9,-,N/A,,Mostly Cloudy,340,2012-12-13 21:53:00
6:53 PM,33.1,28.0,82,29.87,10.0,Calm,Calm,-,N/A,,Overcast,0,2012-12-14 01:53:00
7:53 PM,30.9,28.0,89,29.87,10.0,Calm,Calm,-,N/A,,Overcast,0,2012-12-14 02:53:00
8:53 PM,28.9,27.0,92,29.88,10.0,NNW,3.5,-,N/A,,Mostly Cloudy,340,2012-12-14 03:53:00
9:53 PM,30.9,27.0,85,29.86,10.0,Calm,Calm,-,N/A,,Overcast,0,2012-12-14 04:53:00
11:53 PM,32.0,28.9,88,29.83,10.0,NNW,4.6,-,N/A,,Overcast,340,2012-12-14 06:53:00